Terminal Aerodrome Forecast
Issued by NWS Newport/Morehead City, NC

Home | Current Version | Previous Version | Text Only | Print | Product List | Glossary Off
Versions: 1 2 3 4 5 6 7 8 9 10 11 12 13 14 15 16 17 18 19 20 21 22

000
FTUS42 KMHX 251100
TAFEWN
TAF
KEWN 251133Z 2512/2612 36004KT 6SM BR BKN004
     FM251230 07005KT P6SM SCT025 BKN050
     FM260600 00000KT 3SM BR SCT004=

USA.gov is the U.S. government's official web portal to all federal, state and local government web resources and services.